createdAt,value
2023-03-27T00:02:28.839Z,100568.59
2023-03-27T00:04:56.790Z,100576.31
2023-03-27T00:07:24.648Z,100580.56
2023-03-27T00:09:53.410Z,100583.13
2023-03-27T00:12:21.266Z,100584.84
2023-03-27T00:14:50.473Z,100585.69
2023-03-27T00:17:19.265Z,100598.59
2023-03-27T00:19:47.102Z,100602.91
2023-03-27T00:22:14.899Z,100607.94
2023-03-27T00:24:42.697Z,100613.97
2023-03-27T00:27:10.481Z,100620.84
2023-03-27T00:29:39.681Z,100625.97
2023-03-27T00:32:09.175Z,100621.56
2023-03-27T00:34:37.585Z,100631.91
2023-03-27T00:37:05.735Z,100637.94
2023-03-27T00:39:33.942Z,100638.78
2023-03-27T00:42:01.746Z,100647.34
2023-03-27T00:44:34.347Z,100649.00
2023-03-27T00:47:05.575Z,100653.38
2023-03-27T00:49:37.982Z,100651.56
2023-03-27T00:52:07.183Z,100662.72
2023-03-27T00:54:40.056Z,100666.25
2023-03-27T00:57:11.248Z,100669.69
2023-03-27T00:59:43.268Z,100669.63
2023-03-27T01:02:11.568Z,100667.03
2023-03-27T01:04:44.012Z,100667.03
2023-03-27T01:07:12.768Z,100667.03
2023-03-27T01:09:41.229Z,100680.78
2023-03-27T01:12:26.466Z,100671.25
2023-03-27T01:15:09.835Z,100684.94
2023-03-27T01:17:56.513Z,100687.63
2023-03-27T01:21:12.273Z,100691.91
2023-03-27T01:24:23.079Z,100691.00
2023-03-27T01:27:03.831Z,100699.38
2023-03-27T01:29:46.151Z,100696.81
2023-03-27T01:32:42.221Z,100705.41
2023-03-27T01:35:29.441Z,100715.78
2023-03-27T01:38:17.081Z,100713.97
2023-03-27T01:40:51.541Z,100724.28
2023-03-27T01:43:27.040Z,100719.03
2023-03-27T01:45:59.527Z,100728.56
2023-03-27T01:48:32.970Z,100726.69
2023-03-27T01:51:06.601Z,100738.69
2023-03-27T01:53:39.770Z,100740.44
2023-03-27T01:56:18.301Z,100732.59
2023-03-27T01:58:50.217Z,100740.25
2023-03-27T02:01:24.962Z,100744.56
2023-03-27T02:03:57.120Z,100745.38
2023-03-27T02:06:28.716Z,100747.06
2023-03-27T02:09:01.037Z,100754.03
2023-03-27T02:11:37.563Z,100760.06
2023-03-27T02:14:08.757Z,100755.81
2023-03-27T02:16:46.316Z,100760.06
2023-03-27T02:19:22.192Z,100760.94
2023-03-27T02:21:50.070Z,100763.38
2023-03-27T02:24:18.917Z,100769.38
2023-03-27T02:26:53.061Z,100783.09
2023-03-27T02:29:38.090Z,100777.84
2023-03-27T02:32:21.037Z,100788.16
2023-03-27T02:35:12.565Z,100789.69
2023-03-27T02:37:52.369Z,100800.94
2023-03-27T02:40:44.754Z,100807.63
2023-03-27T02:43:35.935Z,100811.91
2023-03-27T02:46:12.852Z,100813.63
2023-03-27T02:48:46.513Z,100811.03
2023-03-27T02:51:19.066Z,100825.59
2023-03-27T02:53:52.121Z,100821.25
2023-03-27T02:56:24.042Z,100827.28
2023-03-27T02:58:59.885Z,100836.72
2023-03-27T03:01:38.421Z,100837.50
2023-03-27T03:04:26.606Z,100838.31
2023-03-27T03:07:16.104Z,100848.66
2023-03-27T03:09:45.082Z,100847.00
2023-03-27T03:12:12.943Z,100857.31
2023-03-27T03:14:46.510Z,100864.97
2023-03-27T03:17:16.598Z,100858.91
2023-03-27T03:19:46.275Z,100867.44
2023-03-27T03:22:14.661Z,100864.09
2023-03-27T03:24:43.703Z,100866.50
2023-03-27T03:27:14.873Z,100879.47
2023-03-27T03:29:57.803Z,100886.31
2023-03-27T03:32:30.232Z,100880.28
2023-03-27T03:34:58.656Z,100885.31
2023-03-27T03:37:28.633Z,100883.63
2023-03-27T03:39:58.052Z,100903.38
2023-03-27T03:42:25.897Z,100893.88
2023-03-27T03:44:54.096Z,100913.56
2023-03-27T03:47:24.960Z,100920.44
2023-03-27T03:49:52.758Z,100916.91
2023-03-27T03:52:21.056Z,100919.44
2023-03-27T03:54:49.071Z,100926.38
2023-03-27T03:57:17.477Z,100927.16
2023-03-27T03:59:54.378Z,100936.59
2023-03-27T04:02:46.407Z,100940.03
2023-03-27T04:05:17.661Z,100933.97
2023-03-27T04:07:46.039Z,100938.22
2023-03-27T04:10:26.739Z,100938.22
2023-03-27T04:12:54.983Z,100955.38
2023-03-27T04:15:29.376Z,100952.81
2023-03-27T04:18:35.033Z,100952.69
2023-03-27T04:21:14.200Z,100952.69
2023-03-27T04:23:42.846Z,100946.47
2023-03-27T04:26:12.967Z,100964.47
2023-03-27T04:28:59.516Z,100961.84
2023-03-27T04:31:51.025Z,100976.59
2023-03-27T04:34:43.477Z,100982.59
2023-03-27T04:37:45.348Z,100991.06
2023-03-27T04:40:32.433Z,100994.34
2023-03-27T04:43:01.181Z,100997.72
2023-03-27T04:45:30.089Z,101004.47
2023-03-27T04:47:58.144Z,101011.25
2023-03-27T04:50:27.372Z,101007.72
2023-03-27T04:52:58.729Z,101008.34
2023-03-27T04:55:30.483Z,101020.25
2023-03-27T04:58:00.087Z,101020.25
2023-03-27T05:00:27.970Z,101025.25
2023-03-27T05:03:16.244Z,101024.28
2023-03-27T05:05:59.383Z,101031.94
2023-03-27T05:08:27.285Z,101041.34
2023-03-27T05:10:56.612Z,101032.75
2023-03-27T05:13:24.710Z,101031.81
2023-03-27T05:15:52.542Z,101046.41
2023-03-27T05:18:22.969Z,101052.38
2023-03-27T05:20:53.302Z,101052.31
2023-03-27T05:23:22.580Z,101053.91
2023-03-27T05:25:59.770Z,101055.59
2023-03-27T05:28:37.162Z,101053.03
2023-03-27T05:31:05.346Z,101064.97
2023-03-27T05:33:41.806Z,101064.13
2023-03-27T05:36:11.206Z,101068.38
2023-03-27T05:38:44.348Z,101076.22
2023-03-27T05:41:30.825Z,101074.75
2023-03-27T05:43:58.764Z,101074.03
2023-03-27T05:46:27.133Z,101094.88
2023-03-27T05:49:08.840Z,101090.03
2023-03-27T05:51:36.647Z,101092.03
2023-03-27T05:54:06.233Z,101092.16
2023-03-27T05:56:38.678Z,101103.59
2023-03-27T05:59:06.934Z,101106.44
2023-03-27T06:01:36.846Z,101104.09
2023-03-27T06:04:04.903Z,101103.56
2023-03-27T06:06:51.245Z,101101.38
2023-03-27T06:09:20.568Z,101108.72
2023-03-27T06:12:07.477Z,101114.88
2023-03-27T06:14:39.433Z,101114.59
2023-03-27T06:17:29.905Z,101123.25
2023-03-27T06:20:12.355Z,101128.16
2023-03-27T06:22:45.192Z,101134.28
2023-03-27T06:25:16.279Z,101133.16
2023-03-27T06:27:45.380Z,101142.75
2023-03-27T06:30:14.876Z,101130.44
2023-03-27T06:32:51.314Z,101143.81
2023-03-27T06:35:20.272Z,101151.00
2023-03-27T06:37:56.525Z,101147.84
2023-03-27T06:40:28.340Z,101149.25
2023-03-27T06:43:01.848Z,101161.69
2023-03-27T06:45:37.488Z,101163.84
2023-03-27T06:48:24.431Z,101163.28
2023-03-27T06:50:56.801Z,101169.09
2023-03-27T06:53:27.972Z,101168.94
2023-03-27T06:55:59.035Z,101174.63
2023-03-27T06:58:29.781Z,101179.53
2023-03-27T07:00:58.004Z,101179.00
2023-03-27T07:03:46.005Z,101194.19
2023-03-27T07:06:32.516Z,101185.16
2023-03-27T07:09:07.908Z,101198.16
2023-03-27T07:11:37.157Z,101203.22
2023-03-27T07:14:09.445Z,101205.75
2023-03-27T07:16:38.240Z,101212.56
2023-03-27T07:19:06.527Z,101215.09
2023-03-27T07:21:37.760Z,101221.84
2023-03-27T07:24:06.500Z,101225.38
2023-03-27T07:26:39.238Z,101227.09
2023-03-27T07:29:33.161Z,101233.28
2023-03-27T07:32:06.295Z,101235.41
2023-03-27T07:34:50.384Z,101229.50
2023-03-27T07:37:42.710Z,101233.63
2023-03-27T07:40:37.307Z,101239.16
2023-03-27T07:43:38.511Z,101243.44
2023-03-27T07:46:07.780Z,101250.53
2023-03-27T07:48:36.461Z,101252.47
2023-03-27T07:51:13.369Z,101241.66
2023-03-27T07:53:43.572Z,101250.41
2023-03-27T07:56:23.313Z,101247.75
2023-03-27T07:59:01.604Z,101255.38
2023-03-27T08:01:30.461Z,101259.56
2023-03-27T08:03:59.638Z,101265.63
2023-03-27T08:06:28.142Z,101258.06
2023-03-27T08:08:56.990Z,101270.03
2023-03-27T08:11:31.082Z,101271.94
2023-03-27T08:14:01.051Z,101265.91
2023-03-27T08:16:30.077Z,101266.06
2023-03-27T08:19:00.757Z,101271.06
2023-03-27T08:21:31.739Z,101268.47
2023-03-27T08:24:00.579Z,101266.69
2023-03-27T08:26:34.790Z,101277.75
2023-03-27T08:29:09.678Z,101278.66
2023-03-27T08:34:07.411Z,101270.41
2023-03-27T08:36:45.641Z,101285.13
2023-03-27T08:39:14.833Z,101283.44
2023-03-27T08:42:08.212Z,101280.78
2023-03-27T08:44:41.024Z,101282.56
2023-03-27T08:47:17.869Z,101285.06
2023-03-27T08:49:59.202Z,101295.41
2023-03-27T08:52:36.110Z,101295.59
2023-03-27T08:55:14.205Z,101302.47
2023-03-27T08:57:52.531Z,101303.78
2023-03-27T09:00:32.371Z,101292.50
2023-03-27T09:03:25.918Z,101301.41
2023-03-27T09:05:59.011Z,101317.84
2023-03-27T09:08:43.604Z,101303.28
2023-03-27T09:11:27.863Z,101301.41
2023-03-27T09:14:04.008Z,101321.53
2023-03-27T09:16:36.702Z,101315.56
2023-03-27T09:19:16.500Z,101311.25
2023-03-27T09:21:49.736Z,101321.56
2023-03-27T09:24:34.691Z,101318.13
2023-03-27T09:27:26.547Z,101323.28
2023-03-27T09:30:18.506Z,101324.00
2023-03-27T09:32:56.525Z,101321.25
2023-03-27T09:35:24.903Z,101333.25
2023-03-27T09:37:58.402Z,101340.72
2023-03-27T09:40:33.416Z,101339.63
2023-03-27T09:43:09.280Z,101336.09
2023-03-27T09:45:41.825Z,101341.31
2023-03-27T09:48:17.918Z,101341.47
2023-03-27T09:50:47.465Z,101339.63
2023-03-27T09:53:39.752Z,101341.47
2023-03-27T09:56:16.662Z,101351.34
2023-03-27T09:58:49.987Z,101351.16
2023-03-27T10:01:34.207Z,101343.44
2023-03-27T10:04:18.277Z,101347.63
2023-03-27T10:06:51.426Z,101342.41
2023-03-27T10:09:35.430Z,101344.25
2023-03-27T10:12:19.513Z,101354.44
2023-03-27T10:14:52.601Z,101359.38
2023-03-27T10:17:37.733Z,101362.50
2023-03-27T10:20:17.153Z,101358.22
2023-03-27T10:22:54.779Z,101356.28
2023-03-27T10:25:32.027Z,101357.91
2023-03-27T10:28:19.670Z,101360.78
2023-03-27T10:31:10.952Z,101360.03
2023-03-27T10:33:52.588Z,101357.63
2023-03-27T10:36:49.332Z,101363.91
2023-03-27T10:39:21.389Z,101358.75
2023-03-27T10:41:57.552Z,101369.47
2023-03-27T10:44:28.441Z,101369.50
2023-03-27T10:46:59.224Z,101372.13
2023-03-27T10:49:37.467Z,101361.63
2023-03-27T10:52:19.200Z,101366.91
2023-03-27T10:55:34.015Z,101372.97
2023-03-27T10:58:06.601Z,101371.22
2023-03-27T11:00:43.427Z,101367.31
2023-03-27T11:03:17.933Z,101377.50
2023-03-27T11:05:53.652Z,101369.28
2023-03-27T11:08:39.093Z,101384.28
2023-03-27T11:11:14.565Z,101391.88
2023-03-27T11:13:49.476Z,101391.97
2023-03-27T11:16:22.878Z,101391.00
2023-03-27T11:19:28.177Z,101382.47
2023-03-27T11:22:18.403Z,101387.78
2023-03-27T11:24:56.921Z,101382.25
2023-03-27T11:27:30.479Z,101384.75
2023-03-27T11:30:09.014Z,101380.16
2023-03-27T11:32:54.857Z,101383.38
2023-03-27T11:35:25.689Z,101391.06
2023-03-27T11:38:15.906Z,101391.97
2023-03-27T11:40:48.301Z,101396.16
2023-03-27T11:43:19.016Z,101395.41
2023-03-27T11:45:58.586Z,101393.13
2023-03-27T11:48:57.083Z,101386.94
2023-03-27T11:51:38.092Z,101396.09
2023-03-27T11:54:19.188Z,101405.09
2023-03-27T11:56:57.916Z,101406.88
2023-03-27T11:59:59.116Z,101401.66
2023-03-27T12:02:57.622Z,101399.91
2023-03-27T12:05:38.414Z,101403.63
2023-03-27T12:08:13.519Z,101402.88
2023-03-27T12:10:50.474Z,101407.97
2023-03-27T12:14:01.874Z,101400.22
2023-03-27T12:17:00.757Z,101398.84
2023-03-27T12:20:06.919Z,101395.66
2023-03-27T12:22:51.716Z,101410.03
2023-03-27T12:25:50.338Z,101438.00
2023-03-27T12:28:58.861Z,101466.75
2023-03-27T12:32:02.334Z,101490.47
2023-03-27T12:34:36.158Z,101499.47
2023-03-27T12:37:06.142Z,101501.53
2023-03-27T12:39:46.881Z,101478.44
2023-03-27T12:42:16.057Z,101474.81
2023-03-27T12:45:07.247Z,101474.09
2023-03-27T12:47:35.156Z,101476.25
2023-03-27T12:50:20.123Z,101483.53
2023-03-27T12:52:53.359Z,101477.94
2023-03-27T12:55:33.329Z,101472.88
2023-03-27T12:58:04.175Z,101465.94
2023-03-27T13:01:12.328Z,101457.28
2023-03-27T13:04:10.782Z,101459.94
2023-03-27T13:06:50.844Z,101456.31
2023-03-27T13:09:49.936Z,101462.41
2023-03-27T13:12:34.288Z,101460.59
2023-03-27T13:15:29.061Z,101457.09
2023-03-27T13:18:19.625Z,101458.16
2023-03-27T13:20:58.360Z,101452.72
2023-03-27T13:23:42.308Z,101449.91
2023-03-27T13:26:31.786Z,101445.47
2023-03-27T13:29:02.770Z,101444.13
2023-03-27T13:31:59.173Z,101452.91
2023-03-27T13:34:39.786Z,101453.84
2023-03-27T13:37:37.991Z,101455.56
2023-03-27T13:40:20.498Z,101461.50
2023-03-27T13:42:53.535Z,101464.09
2023-03-27T13:45:26.024Z,101464.75
2023-03-27T13:49:04.749Z,101464.19
2023-03-27T13:52:09.147Z,101468.66
2023-03-27T13:55:10.571Z,101478.06
2023-03-27T13:58:12.815Z,101489.75
2023-03-27T14:01:01.852Z,101486.47
2023-03-27T14:03:52.948Z,101502.28
2023-03-27T14:07:00.851Z,101500.88
2023-03-27T14:09:46.415Z,101516.97
2023-03-27T14:12:25.236Z,101511.81
2023-03-27T14:15:21.967Z,101499.00
2023-03-27T14:18:31.754Z,101503.88
2023-03-27T14:21:01.770Z,101506.75
2023-03-27T14:23:46.628Z,101501.38
2023-03-27T14:26:34.283Z,101496.06
2023-03-27T14:29:03.903Z,101503.94
2023-03-27T14:31:49.448Z,101500.59
2023-03-27T14:34:47.242Z,101497.75
2023-03-27T14:37:37.599Z,101494.16
2023-03-27T14:40:23.165Z,101483.72
2023-03-27T14:42:57.041Z,101487.00
2023-03-27T14:45:27.963Z,101489.50
2023-03-27T14:48:00.781Z,101487.00
2023-03-27T14:50:38.799Z,101492.09
2023-03-27T14:53:12.171Z,101493.56
2023-03-27T14:56:24.964Z,101497.88
2023-03-27T14:59:14.212Z,101490.38
2023-03-27T15:02:00.123Z,101499.81
2023-03-27T15:04:31.452Z,101505.03
2023-03-27T15:07:18.934Z,101501.53
2023-03-27T15:10:12.558Z,101514.72
2023-03-27T15:13:11.298Z,101520.19
2023-03-27T15:15:50.224Z,101525.13
2023-03-27T15:18:24.814Z,101531.91
2023-03-27T15:20:55.026Z,101529.41
2023-03-27T15:23:28.460Z,101537.25
2023-03-27T15:26:01.892Z,101549.56
2023-03-27T15:28:36.702Z,101542.84
2023-03-27T15:31:07.121Z,101541.06
2023-03-27T15:33:41.004Z,101549.00
2023-03-27T15:36:28.526Z,101545.59
2023-03-27T15:39:00.478Z,101543.09
2023-03-27T15:41:43.055Z,101541.28
2023-03-27T15:44:17.359Z,101540.50
2023-03-27T15:46:50.733Z,101538.84
2023-03-27T15:49:25.020Z,101548.31
2023-03-27T15:51:53.045Z,101553.31
2023-03-27T15:54:27.795Z,101556.56
2023-03-27T15:57:09.644Z,101575.19
2023-03-27T15:59:51.187Z,101568.75
2023-03-27T16:02:25.355Z,101559.22
2023-03-27T16:04:55.795Z,101557.75
2023-03-27T16:07:27.414Z,101553.16
2023-03-27T16:09:57.371Z,101563.59
2023-03-27T16:12:32.222Z,101563.47
2023-03-27T16:15:05.735Z,101577.81
2023-03-27T16:17:45.129Z,101578.69
2023-03-27T16:20:40.229Z,101585.50
2023-03-27T16:23:08.706Z,101591.41
2023-03-27T16:25:37.454Z,101596.53
2023-03-27T16:28:09.830Z,101593.88
2023-03-27T16:30:41.454Z,101598.38
2023-03-27T16:33:16.762Z,101602.75
2023-03-27T16:35:46.065Z,101598.47
2023-03-27T16:38:14.447Z,101597.94
2023-03-27T16:40:43.244Z,101597.22
2023-03-27T16:43:11.500Z,101604.91
2023-03-27T16:45:39.742Z,101601.44
2023-03-27T16:48:08.259Z,101601.25
2023-03-27T16:50:37.823Z,101598.75
2023-03-27T16:53:05.708Z,101610.72
2023-03-27T16:55:33.644Z,101603.88
2023-03-27T16:58:01.603Z,101607.56
2023-03-27T17:00:29.541Z,101610.69
2023-03-27T17:02:57.364Z,101603.88
2023-03-27T17:05:25.756Z,101607.25
2023-03-27T17:07:55.084Z,101622.00
2023-03-27T17:10:22.897Z,101622.00
2023-03-27T17:12:51.138Z,101613.38
2023-03-27T17:15:19.057Z,101630.47
2023-03-27T17:17:46.981Z,101625.28
2023-03-27T17:20:14.867Z,101634.84
2023-03-27T17:22:42.807Z,101643.38
2023-03-27T17:25:12.799Z,101641.66
2023-03-27T17:27:40.628Z,101639.72
2023-03-27T17:30:09.664Z,101640.47
2023-03-27T17:32:37.491Z,101652.47
2023-03-27T17:35:06.373Z,101651.53
2023-03-27T17:37:35.635Z,101653.13
2023-03-27T17:40:09.436Z,101656.66
2023-03-27T17:42:38.754Z,101660.84
2023-03-27T17:45:07.532Z,101664.28
2023-03-27T17:47:35.697Z,101660.84
2023-03-27T17:50:03.556Z,101666.03
2023-03-27T17:52:32.960Z,101673.66
2023-03-27T17:55:00.921Z,101671.09
2023-03-27T17:57:29.564Z,101681.41
2023-03-27T17:59:58.842Z,101676.19
2023-03-27T18:02:26.853Z,101677.59
2023-03-27T18:04:54.727Z,101691.38
2023-03-27T18:07:23.710Z,101690.63
2023-03-27T18:09:51.672Z,101683.59
2023-03-27T18:12:19.859Z,101697.44
2023-03-27T18:14:47.595Z,101698.22
2023-03-27T18:17:20.837Z,101700.63
2023-03-27T18:19:48.935Z,101709.25
2023-03-27T18:22:17.609Z,101704.16
2023-03-27T18:24:45.579Z,101704.91
2023-03-27T18:27:13.480Z,101710.09
2023-03-27T18:29:41.543Z,101709.06
2023-03-27T18:32:09.895Z,101715.00
2023-03-27T18:34:39.096Z,101714.25
2023-03-27T18:37:07.021Z,101719.38
2023-03-27T18:39:37.426Z,101725.25
2023-03-27T18:42:05.995Z,101715.50
2023-03-27T18:44:34.373Z,101733.56
2023-03-27T18:47:02.269Z,101728.19
2023-03-27T18:49:30.651Z,101740.44
2023-03-27T18:51:59.911Z,101743.78
2023-03-27T18:54:28.174Z,101738.28
2023-03-27T18:56:56.132Z,101753.06
2023-03-27T18:59:24.172Z,101745.09
2023-03-27T19:01:52.043Z,101746.91
2023-03-27T19:04:19.973Z,101751.28
2023-03-27T19:06:47.943Z,101753.88
2023-03-27T19:09:17.873Z,101757.44
2023-03-27T19:11:47.077Z,101753.94
2023-03-27T19:14:18.351Z,101758.31
2023-03-27T19:17:06.174Z,101762.44
2023-03-27T19:19:37.558Z,101762.22
2023-03-27T19:22:28.951Z,101766.44
2023-03-27T19:25:09.751Z,101765.66
2023-03-27T19:27:39.417Z,101776.91
2023-03-27T19:30:10.391Z,101778.22
2023-03-27T19:32:39.680Z,101777.34
2023-03-27T19:35:09.122Z,101769.41
2023-03-27T19:37:38.010Z,101773.69
2023-03-27T19:40:10.212Z,101774.34
2023-03-27T19:42:38.493Z,101770.78
2023-03-27T19:45:08.731Z,101780.41
2023-03-27T19:47:37.015Z,101770.72
2023-03-27T19:50:06.947Z,101787.13
2023-03-27T19:52:57.337Z,101782.81
2023-03-27T19:55:34.970Z,101789.63
2023-03-27T19:58:02.812Z,101788.69
2023-03-27T20:00:32.118Z,101788.41
2023-03-27T20:03:00.174Z,101798.00
2023-03-27T20:05:29.522Z,101797.06
2023-03-27T20:07:57.512Z,101805.66
2023-03-27T20:10:27.029Z,101798.69
2023-03-27T20:12:56.424Z,101796.97
2023-03-27T20:15:24.261Z,101800.31
2023-03-27T20:17:52.189Z,101802.81
2023-03-27T20:20:20.140Z,101796.53
2023-03-27T20:22:57.013Z,101795.59
2023-03-27T20:25:28.306Z,101800.63
2023-03-27T20:27:57.573Z,101805.69
2023-03-27T20:30:26.255Z,101803.69
2023-03-27T20:32:54.487Z,101799.47
2023-03-27T20:35:24.715Z,101810.59
2023-03-27T20:37:57.668Z,101798.56
2023-03-27T20:40:27.194Z,101802.78
2023-03-27T20:43:03.243Z,101811.25
2023-03-27T20:45:31.921Z,101806.88
2023-03-27T20:48:04.076Z,101805.97
2023-03-27T20:50:34.971Z,101810.97
2023-03-27T20:53:04.150Z,101813.47
2023-03-27T20:55:39.168Z,101806.63
2023-03-27T20:58:10.888Z,101810.00
2023-03-27T21:00:39.035Z,101811.53
2023-03-27T21:03:07.111Z,101808.84
2023-03-27T21:05:41.194Z,101811.22
2023-03-27T21:08:14.220Z,101812.13
2023-03-27T21:10:42.610Z,101815.59
2023-03-27T21:13:12.472Z,101821.66
2023-03-27T21:15:40.861Z,101819.06
2023-03-27T21:18:09.504Z,101825.84
2023-03-27T21:20:37.995Z,101826.75
2023-03-27T21:23:06.417Z,101825.84
2023-03-27T21:25:35.996Z,101825.59
2023-03-27T21:28:07.270Z,101823.88
2023-03-27T21:30:46.198Z,101826.34
2023-03-27T21:33:16.829Z,101834.75
2023-03-27T21:35:47.055Z,101839.00
2023-03-27T21:38:16.737Z,101842.41
2023-03-27T21:40:47.410Z,101844.78
2023-03-27T21:43:15.674Z,101845.50
2023-03-27T21:45:46.950Z,101842.72
2023-03-27T21:48:15.143Z,101849.56
2023-03-27T21:50:44.251Z,101851.19
2023-03-27T21:53:13.543Z,101851.06
2023-03-27T21:55:41.502Z,101847.47
2023-03-27T21:58:09.641Z,101852.56
2023-03-27T22:00:37.853Z,101849.19
2023-03-27T22:03:07.232Z,101845.78
2023-03-27T22:05:38.684Z,101853.31
2023-03-27T22:08:07.489Z,101857.50
2023-03-27T22:10:36.125Z,101858.41
2023-03-27T22:13:04.531Z,101862.78
2023-03-27T22:15:32.777Z,101862.78
2023-03-27T22:18:01.173Z,101856.72
2023-03-27T22:20:30.759Z,101865.34
2023-03-27T22:22:58.724Z,101869.59
2023-03-27T22:25:27.014Z,101870.34
2023-03-27T22:27:54.866Z,101871.13
2023-03-27T22:30:22.783Z,101881.34
2023-03-27T22:32:51.071Z,101878.63
2023-03-27T22:35:19.348Z,101881.09
2023-03-27T22:37:48.691Z,101881.84
2023-03-27T22:40:16.777Z,101874.84
2023-03-27T22:42:44.643Z,101886.78
2023-03-27T22:45:13.308Z,101891.19
2023-03-27T22:47:41.229Z,101899.75
2023-03-27T22:50:09.863Z,101908.06
2023-03-27T22:52:37.750Z,101897.66
2023-03-27T22:55:08.307Z,101906.97
2023-03-27T22:57:37.738Z,101911.16
2023-03-27T23:00:07.004Z,101919.63
2023-03-27T23:02:34.976Z,101923.84
2023-03-27T23:05:04.122Z,101912.50
2023-03-27T23:07:32.586Z,101926.84
2023-03-27T23:10:00.767Z,101921.47
2023-03-27T23:12:29.980Z,101925.69
2023-03-27T23:14:57.882Z,101934.06
2023-03-27T23:17:25.866Z,101926.22
2023-03-27T23:19:53.805Z,101932.97
2023-03-27T23:22:21.712Z,101936.38
2023-03-27T23:24:49.661Z,101934.56
2023-03-27T23:27:17.699Z,101938.75
2023-03-27T23:29:48.000Z,101936.94
2023-03-27T23:32:15.947Z,101948.16
2023-03-27T23:34:43.894Z,101954.00
2023-03-27T23:37:11.858Z,101954.63
2023-03-27T23:39:39.839Z,101956.28
2023-03-27T23:42:07.822Z,101952.63
2023-03-27T23:44:35.968Z,101959.44
2023-03-27T23:47:06.008Z,101961.00
2023-03-27T23:49:33.984Z,101960.00
2023-03-27T23:52:01.960Z,101954.69
2023-03-27T23:54:30.076Z,101960.59
2023-03-27T23:56:58.142Z,101960.44
2023-03-27T23:59:26.119Z,101962.06
